Montornes del Valles, Spain
Current Conditions -  °F | °C
As of 6:00 AM on Tuesday 21 Oct 2014 (Local Time) from LEBL Reporting Station
Few Clouds Few Clouds  
Wind Chill: 64°   Ceiling: Unl
Heat Index: 64°   Visibility: 6mi
Dew Point: 54°   Wind: 6mph
Humidity: 68%   Direction: 310°NW
Pressure: 30.06"   Gusts: NA
Location:  41.53°N, 2.27°E
Report Text: LEBL 210400Z 31005KT 9999 FEW020 18/12 Q1018 NOSIG
Loading
Personal Weather Stations






























Interactive Weather Map
Tropical Storm Tracking
New forecast layout! Learn more

10-Day Weather Forecast

Advertisements
Track Severe Weather on mobile